createdAt,value
2023-12-07T00:00:46.293Z,100.00
2023-12-07T00:03:13.929Z,100.00
2023-12-07T00:05:43.173Z,100.00
2023-12-07T00:08:11.669Z,100.00
2023-12-07T00:10:39.298Z,100.00
2023-12-07T00:13:06.950Z,100.00
2023-12-07T00:15:35.128Z,100.00
2023-12-07T00:18:04.140Z,100.00
2023-12-07T00:20:31.950Z,100.00
2023-12-07T00:23:00.881Z,100.00
2023-12-07T00:25:28.479Z,100.00
2023-12-07T00:27:56.125Z,100.00
2023-12-07T00:30:23.932Z,100.00
2023-12-07T00:32:51.599Z,100.00
2023-12-07T00:35:23.053Z,100.00
2023-12-07T00:37:51.463Z,100.00
2023-12-07T00:40:20.445Z,100.00
2023-12-07T00:42:48.356Z,100.00
2023-12-07T00:45:16.054Z,100.00
2023-12-07T00:47:44.055Z,100.00
2023-12-07T00:50:15.499Z,100.00
2023-12-07T00:52:43.338Z,100.00
2023-12-07T00:55:12.491Z,100.00
2023-12-07T00:57:42.155Z,100.00
2023-12-07T01:00:11.443Z,100.00
2023-12-07T01:02:39.005Z,100.00
2023-12-07T01:05:07.753Z,100.00
2023-12-07T01:07:35.430Z,100.00
2023-12-07T01:10:03.048Z,100.00
2023-12-07T01:12:30.736Z,100.00
2023-12-07T01:14:59.696Z,100.00
2023-12-07T01:17:27.280Z,100.00
2023-12-07T01:19:55.115Z,100.00
2023-12-07T01:22:23.027Z,100.00
2023-12-07T01:24:50.822Z,100.00
2023-12-07T01:27:19.183Z,100.00
2023-12-07T01:29:46.792Z,100.00
2023-12-07T01:32:15.716Z,100.00
2023-12-07T01:34:43.347Z,100.00
2023-12-07T01:37:10.989Z,100.00
2023-12-07T01:39:38.554Z,100.00
2023-12-07T01:42:06.270Z,100.00
2023-12-07T01:44:33.961Z,100.00
2023-12-07T01:47:01.764Z,100.00
2023-12-07T01:49:31.219Z,100.00
2023-12-07T01:51:59.624Z,100.00
2023-12-07T01:54:27.346Z,100.00
2023-12-07T01:56:57.195Z,100.00
2023-12-07T01:59:25.341Z,100.00
2023-12-07T02:01:53.330Z,100.00
2023-12-07T02:04:21.039Z,100.00
2023-12-07T02:06:50.273Z,100.00
2023-12-07T02:09:18.284Z,100.00
2023-12-07T02:11:45.799Z,100.00
2023-12-07T02:14:13.923Z,100.00
2023-12-07T02:16:47.258Z,100.00
2023-12-07T02:19:27.026Z,100.00
2023-12-07T02:22:01.770Z,100.00
2023-12-07T02:24:35.005Z,100.00
2023-12-07T02:27:03.980Z,100.00
2023-12-07T02:29:31.517Z,100.00
2023-12-07T02:31:59.132Z,100.00
2023-12-07T02:34:26.763Z,100.00
2023-12-07T02:36:57.541Z,100.00
2023-12-07T02:39:26.501Z,100.00
2023-12-07T02:41:54.599Z,100.00
2023-12-07T02:44:23.527Z,100.00
2023-12-07T02:46:51.359Z,100.00
2023-12-07T02:49:18.935Z,100.00
2023-12-07T02:51:46.533Z,100.00
2023-12-07T02:54:14.187Z,100.00
2023-12-07T02:56:41.711Z,100.00
2023-12-07T02:59:09.231Z,100.00
2023-12-07T03:01:38.183Z,100.00
2023-12-07T03:04:06.102Z,100.00
2023-12-07T03:06:33.680Z,100.00
2023-12-07T03:09:01.226Z,100.00
2023-12-07T03:11:28.739Z,100.00
2023-12-07T03:13:56.266Z,100.00
2023-12-07T03:16:23.897Z,100.00
2023-12-07T03:18:52.817Z,100.00
2023-12-07T03:21:20.337Z,100.00
2023-12-07T03:23:47.859Z,100.00
2023-12-07T03:26:15.365Z,100.00
2023-12-07T03:28:42.977Z,100.00
2023-12-07T03:31:10.541Z,100.00
2023-12-07T03:33:39.361Z,100.00
2023-12-07T03:36:09.451Z,100.00
2023-12-07T03:38:36.951Z,100.00
2023-12-07T03:41:04.988Z,100.00
2023-12-07T03:43:32.558Z,100.00
2023-12-07T03:46:00.247Z,100.00
2023-12-07T03:48:27.826Z,100.00
2023-12-07T03:50:55.382Z,100.00
2023-12-07T03:53:24.298Z,100.00
2023-12-07T03:55:52.014Z,100.00
2023-12-07T03:58:19.549Z,100.00
2023-12-07T04:00:47.357Z,100.00
2023-12-07T04:03:14.929Z,100.00
2023-12-07T04:05:42.724Z,100.00
2023-12-07T04:08:10.254Z,100.00
2023-12-07T04:10:39.231Z,100.00
2023-12-07T04:13:07.301Z,100.00
2023-12-07T04:15:34.890Z,100.00
2023-12-07T04:18:03.671Z,100.00
2023-12-07T04:20:31.218Z,100.00
2023-12-07T04:22:58.745Z,100.00
2023-12-07T04:25:26.310Z,100.00
2023-12-07T04:27:55.198Z,100.00
2023-12-07T04:30:22.872Z,100.00
2023-12-07T04:32:50.459Z,100.00
2023-12-07T04:35:18.040Z,100.00
2023-12-07T04:37:45.603Z,100.00
2023-12-07T04:40:13.917Z,100.00
2023-12-07T04:42:42.069Z,100.00
2023-12-07T04:45:11.700Z,100.00
2023-12-07T04:47:39.278Z,100.00
2023-12-07T04:50:07.557Z,100.00
2023-12-07T04:52:35.555Z,100.00
2023-12-07T04:55:04.872Z,100.00
2023-12-07T04:57:32.416Z,100.00
2023-12-07T04:59:59.947Z,100.00
2023-12-07T05:02:29.023Z,100.00
2023-12-07T05:04:56.550Z,100.00
2023-12-07T05:07:24.757Z,100.00
2023-12-07T05:09:52.648Z,100.00
2023-12-07T05:12:20.199Z,100.00
2023-12-07T05:14:48.251Z,100.00
2023-12-07T05:17:16.572Z,100.00
2023-12-07T05:19:46.148Z,100.00
2023-12-07T05:22:13.715Z,100.00
2023-12-07T05:24:41.265Z,100.00
2023-12-07T05:27:08.814Z,100.00
2023-12-07T05:29:38.189Z,100.00
2023-12-07T05:32:08.861Z,100.00
2023-12-07T05:34:36.582Z,100.00
2023-12-07T05:37:06.263Z,100.00
2023-12-07T05:39:33.917Z,100.00
2023-12-07T05:42:01.478Z,100.00
2023-12-07T05:44:29.031Z,100.00
2023-12-07T05:46:56.544Z,100.00
2023-12-07T05:49:24.408Z,100.00
2023-12-07T05:51:53.445Z,100.00
2023-12-07T05:54:23.251Z,100.00
2023-12-07T05:56:51.000Z,100.00
2023-12-07T05:59:18.701Z,100.00
2023-12-07T06:01:46.289Z,100.00
2023-12-07T06:04:14.372Z,100.00
2023-12-07T06:06:42.106Z,100.00
2023-12-07T06:09:09.790Z,100.00
2023-12-07T06:11:38.737Z,100.00
2023-12-07T06:14:07.422Z,100.00
2023-12-07T06:16:35.120Z,100.00
2023-12-07T06:19:02.719Z,100.00
2023-12-07T06:21:31.123Z,100.00
2023-12-07T06:23:59.814Z,100.00
2023-12-07T06:26:27.394Z,100.00
2023-12-07T06:28:56.277Z,100.00
2023-12-07T06:31:23.916Z,100.00
2023-12-07T06:33:52.014Z,100.00
2023-12-07T06:36:23.014Z,100.00
2023-12-07T06:38:50.924Z,100.00
2023-12-07T06:41:18.443Z,100.00
2023-12-07T06:43:46.261Z,100.00
2023-12-07T06:46:17.274Z,100.00
2023-12-07T06:48:44.884Z,100.00
2023-12-07T06:51:13.611Z,100.00
2023-12-07T06:53:41.992Z,100.00
2023-12-07T06:56:10.558Z,100.00
2023-12-07T06:58:38.216Z,100.00
2023-12-07T07:01:06.040Z,100.00
2023-12-07T07:03:36.354Z,100.00
2023-12-07T07:06:04.033Z,100.00
2023-12-07T07:08:31.592Z,100.00
2023-12-07T07:10:59.250Z,100.00
2023-12-07T07:13:26.871Z,100.00
2023-12-07T07:15:56.037Z,100.00
2023-12-07T07:18:25.319Z,100.00
2023-12-07T07:20:54.301Z,100.00
2023-12-07T07:23:21.850Z,100.00
2023-12-07T07:25:49.461Z,100.00
2023-12-07T07:28:17.002Z,100.00
2023-12-07T07:30:44.558Z,100.00
2023-12-07T07:33:12.148Z,100.00
2023-12-07T07:35:39.770Z,100.00
2023-12-07T07:38:08.653Z,100.00
2023-12-07T07:40:37.029Z,100.00
2023-12-07T07:43:04.577Z,100.00
2023-12-07T07:45:32.127Z,100.00
2023-12-07T07:47:59.745Z,100.00
2023-12-07T07:50:27.316Z,100.00
2023-12-07T07:52:54.884Z,100.00
2023-12-07T07:55:23.789Z,100.00
2023-12-07T07:57:51.308Z,100.00
2023-12-07T08:00:20.360Z,100.00
2023-12-07T08:02:48.176Z,100.00
2023-12-07T08:05:15.937Z,100.00
2023-12-07T08:07:43.527Z,100.00
2023-12-07T08:10:11.337Z,100.00
2023-12-07T08:12:41.646Z,100.00
2023-12-07T08:15:11.965Z,100.00
2023-12-07T08:17:39.945Z,100.00
2023-12-07T08:20:09.950Z,100.00
2023-12-07T08:22:37.500Z,100.00
2023-12-07T08:25:11.124Z,100.00
2023-12-07T08:27:41.272Z,100.00
2023-12-07T08:30:11.312Z,100.00
2023-12-07T08:32:39.122Z,100.00
2023-12-07T08:35:07.740Z,100.00
2023-12-07T08:37:35.532Z,100.00
2023-12-07T08:40:03.157Z,100.00
2023-12-07T08:42:32.758Z,100.00
2023-12-07T08:45:01.662Z,100.00
2023-12-07T08:47:31.317Z,100.00
2023-12-07T08:49:58.994Z,100.00
2023-12-07T08:52:35.781Z,100.00
2023-12-07T08:55:10.302Z,100.00
2023-12-07T08:57:38.557Z,100.00
2023-12-07T09:00:08.855Z,100.00
2023-12-07T09:02:45.620Z,100.00
2023-12-07T09:07:43.118Z,100.00
2023-12-07T09:10:11.537Z,100.00
2023-12-07T09:12:40.147Z,100.00
2023-12-07T09:15:12.185Z,100.00
2023-12-07T09:17:40.241Z,96.75
2023-12-07T09:20:12.990Z,91.32
2023-12-07T09:22:41.956Z,87.27
2023-12-07T09:25:11.135Z,82.59
2023-12-07T09:27:39.309Z,86.17
2023-12-07T09:30:11.885Z,97.95
2023-12-07T09:32:40.205Z,100.00
2023-12-07T09:35:08.924Z,100.00
2023-12-07T09:37:36.947Z,100.00
2023-12-07T09:40:06.857Z,100.00
2023-12-07T09:42:36.658Z,100.00
2023-12-07T09:45:06.068Z,100.00
2023-12-07T09:47:38.844Z,100.00
2023-12-07T09:50:08.056Z,97.84
2023-12-07T09:52:35.646Z,95.70
2023-12-07T09:55:05.137Z,94.20
2023-12-07T09:57:33.094Z,97.03
2023-12-07T10:00:00.930Z,100.00
2023-12-07T10:02:28.455Z,100.00
2023-12-07T10:05:08.199Z,100.00
2023-12-07T10:07:38.634Z,91.82
2023-12-07T10:10:07.917Z,83.70
2023-12-07T10:12:36.595Z,80.96
2023-12-07T10:15:14.458Z,80.00
2023-12-07T10:17:50.188Z,80.60
2023-12-07T10:20:24.769Z,79.10
2023-12-07T10:23:03.447Z,82.44
2023-12-07T10:25:31.698Z,77.03
2023-12-07T10:27:59.449Z,75.87
2023-12-07T10:30:29.179Z,72.68
2023-12-07T10:32:56.924Z,72.55
2023-12-07T10:35:26.639Z,73.89
2023-12-07T10:37:54.289Z,71.49
2023-12-07T10:40:22.090Z,76.14
2023-12-07T10:42:50.570Z,80.74
2023-12-07T10:45:18.930Z,86.78
2023-12-07T10:47:47.275Z,87.90
2023-12-07T10:50:18.727Z,90.18
2023-12-07T10:52:55.551Z,84.69
2023-12-07T10:55:25.142Z,69.20
2023-12-07T10:57:55.084Z,63.75
2023-12-07T11:00:33.539Z,61.45
2023-12-07T11:03:08.766Z,73.02
2023-12-07T11:05:37.095Z,83.43
2023-12-07T11:08:10.874Z,84.43
2023-12-07T11:10:45.742Z,92.38
2023-12-07T11:13:19.464Z,94.61
2023-12-07T11:15:47.596Z,100.00
2023-12-07T11:18:15.515Z,100.00
2023-12-07T11:20:45.224Z,100.00
2023-12-07T11:23:17.781Z,100.00
2023-12-07T11:25:45.836Z,100.00
2023-12-07T11:28:14.181Z,99.14
2023-12-07T11:30:45.109Z,82.78
2023-12-07T11:33:13.590Z,71.88
2023-12-07T11:36:05.533Z,65.88
2023-12-07T11:38:34.528Z,63.94
2023-12-07T11:41:03.517Z,63.35
2023-12-07T11:43:47.047Z,63.42
2023-12-07T11:46:16.361Z,62.53
2023-12-07T11:48:51.083Z,60.53
2023-12-07T11:51:19.375Z,61.14
2023-12-07T11:53:49.810Z,60.87
2023-12-07T11:56:21.532Z,71.51
2023-12-07T11:58:49.713Z,84.91
2023-12-07T12:01:19.262Z,91.47
2023-12-07T12:03:46.893Z,87.79
2023-12-07T12:06:14.454Z,93.18
2023-12-07T12:08:43.923Z,92.18
2023-12-07T12:11:13.015Z,98.11
2023-12-07T12:13:40.891Z,93.29
2023-12-07T12:16:09.529Z,93.50
2023-12-07T12:18:37.237Z,82.39
2023-12-07T12:21:05.626Z,76.62
2023-12-07T12:23:33.154Z,63.88
2023-12-07T12:26:01.036Z,59.57
2023-12-07T12:28:33.475Z,55.26
2023-12-07T12:31:01.914Z,49.73
2023-12-07T12:33:29.521Z,47.07
2023-12-07T12:36:05.273Z,46.32
2023-12-07T12:38:38.912Z,45.23
2023-12-07T12:41:11.164Z,45.26
2023-12-07T12:43:40.289Z,44.83
2023-12-07T12:46:08.051Z,44.50
2023-12-07T12:48:35.880Z,44.99
2023-12-07T12:51:09.703Z,45.32
2023-12-07T12:53:37.563Z,46.14
2023-12-07T12:56:05.838Z,46.93
2023-12-07T12:58:33.811Z,46.93
2023-12-07T13:01:04.765Z,47.35
2023-12-07T13:03:32.783Z,47.93
2023-12-07T13:06:02.510Z,48.22
2023-12-07T13:08:34.136Z,48.30
2023-12-07T13:11:01.958Z,47.86
2023-12-07T13:13:30.783Z,47.28
2023-12-07T13:15:58.363Z,46.55
2023-12-07T13:18:27.267Z,46.65
2023-12-07T13:20:56.495Z,47.62
2023-12-07T13:23:24.521Z,49.62
2023-12-07T13:25:52.158Z,50.32
2023-12-07T13:28:19.777Z,50.09
2023-12-07T13:30:47.309Z,50.11
2023-12-07T13:33:22.330Z,50.43
2023-12-07T13:35:57.193Z,51.86
2023-12-07T13:38:25.279Z,51.80
2023-12-07T13:40:52.964Z,52.84
2023-12-07T13:43:20.549Z,53.54
2023-12-07T13:45:48.222Z,55.15
2023-12-07T13:48:15.911Z,56.13
2023-12-07T13:50:44.621Z,56.72
2023-12-07T13:53:13.667Z,57.48
2023-12-07T13:55:41.452Z,59.77
2023-12-07T13:58:09.353Z,60.74
2023-12-07T14:00:36.906Z,61.05
2023-12-07T14:03:05.787Z,61.80
2023-12-07T14:05:33.527Z,63.33
2023-12-07T14:08:01.073Z,64.48
2023-12-07T14:10:31.473Z,65.84
2023-12-07T14:13:00.115Z,67.41
2023-12-07T14:15:39.008Z,67.87
2023-12-07T14:18:10.647Z,68.78
2023-12-07T14:20:51.149Z,70.23
2023-12-07T14:23:27.481Z,72.74
2023-12-07T14:26:00.855Z,74.88
2023-12-07T14:28:31.794Z,77.95
2023-12-07T14:31:00.426Z,84.25
2023-12-07T14:33:28.458Z,88.52
2023-12-07T14:35:56.491Z,90.85
2023-12-07T14:38:24.494Z,92.11
2023-12-07T14:40:52.274Z,91.89
2023-12-07T14:43:22.509Z,94.65
2023-12-07T14:45:50.331Z,93.85
2023-12-07T14:48:18.040Z,98.17
2023-12-07T14:50:45.975Z,99.13
2023-12-07T14:53:14.139Z,98.82
2023-12-07T14:55:41.845Z,100.00
2023-12-07T14:58:09.518Z,100.00
2023-12-07T15:00:38.537Z,100.00
2023-12-07T15:03:07.165Z,100.00
2023-12-07T15:05:34.830Z,100.00
2023-12-07T15:08:02.503Z,100.00
2023-12-07T15:10:30.175Z,100.00
2023-12-07T15:12:57.673Z,100.00
2023-12-07T15:15:25.228Z,100.00
2023-12-07T15:17:55.316Z,100.00
2023-12-07T15:20:23.465Z,100.00
2023-12-07T15:22:51.057Z,100.00
2023-12-07T15:25:18.995Z,100.00
2023-12-07T15:27:48.066Z,100.00
2023-12-07T15:30:16.548Z,100.00
2023-12-07T15:32:44.967Z,100.00
2023-12-07T15:35:13.993Z,100.00
2023-12-07T15:37:42.119Z,100.00
2023-12-07T15:40:11.531Z,100.00
2023-12-07T15:42:39.871Z,100.00
2023-12-07T15:45:08.973Z,100.00
2023-12-07T15:47:36.736Z,100.00
2023-12-07T15:50:04.842Z,100.00
2023-12-07T15:52:34.424Z,100.00
2023-12-07T15:55:03.008Z,100.00
2023-12-07T15:57:30.624Z,100.00
2023-12-07T15:59:58.159Z,100.00
2023-12-07T16:02:26.985Z,100.00
2023-12-07T16:04:54.546Z,100.00
2023-12-07T16:07:22.392Z,100.00
2023-12-07T16:09:51.384Z,100.00
2023-12-07T16:12:18.925Z,100.00
2023-12-07T16:14:46.473Z,100.00
2023-12-07T16:17:14.187Z,100.00
2023-12-07T16:19:42.061Z,100.00
2023-12-07T16:22:10.012Z,100.00
2023-12-07T16:24:37.596Z,100.00
2023-12-07T16:27:08.324Z,100.00
2023-12-07T16:29:36.710Z,100.00
2023-12-07T16:32:04.434Z,100.00
2023-12-07T16:34:32.261Z,100.00
2023-12-07T16:36:59.957Z,100.00
2023-12-07T16:39:27.485Z,100.00
2023-12-07T16:42:01.251Z,100.00
2023-12-07T16:44:32.071Z,100.00
2023-12-07T16:46:59.802Z,100.00
2023-12-07T16:49:28.130Z,100.00
2023-12-07T16:51:55.952Z,100.00
2023-12-07T16:54:23.476Z,100.00
2023-12-07T16:56:51.114Z,100.00
2023-12-07T16:59:18.765Z,100.00
2023-12-07T17:01:47.616Z,100.00
2023-12-07T17:04:15.291Z,100.00
2023-12-07T17:06:50.657Z,100.00
2023-12-07T17:09:24.078Z,100.00
2023-12-07T17:11:51.660Z,100.00
2023-12-07T17:14:19.212Z,100.00
2023-12-07T17:16:48.467Z,100.00
2023-12-07T17:19:16.329Z,100.00
2023-12-07T17:21:44.211Z,100.00
2023-12-07T17:24:13.152Z,100.00
2023-12-07T17:26:52.084Z,100.00
2023-12-07T17:29:21.760Z,100.00
2023-12-07T17:31:50.792Z,100.00
2023-12-07T17:34:18.664Z,100.00
2023-12-07T17:36:46.550Z,100.00
2023-12-07T17:39:15.980Z,100.00
2023-12-07T17:41:43.704Z,100.00
2023-12-07T17:44:11.321Z,100.00
2023-12-07T17:46:38.905Z,100.00
2023-12-07T17:49:08.648Z,100.00
2023-12-07T17:51:36.290Z,100.00
2023-12-07T17:54:03.912Z,100.00
2023-12-07T17:56:31.530Z,100.00
2023-12-07T17:58:59.943Z,100.00
2023-12-07T18:01:27.809Z,100.00
2023-12-07T18:03:58.572Z,100.00
2023-12-07T18:06:28.879Z,100.00
2023-12-07T18:08:56.667Z,100.00
2023-12-07T18:11:25.447Z,100.00
2023-12-07T18:13:54.070Z,100.00
2023-12-07T18:16:23.368Z,100.00
2023-12-07T18:18:51.112Z,100.00
2023-12-07T18:21:19.700Z,100.00
2023-12-07T18:23:48.641Z,100.00
2023-12-07T18:26:16.296Z,100.00
2023-12-07T18:28:43.884Z,100.00
2023-12-07T18:31:14.478Z,100.00
2023-12-07T18:33:42.492Z,100.00
2023-12-07T18:36:10.481Z,100.00
2023-12-07T18:38:38.209Z,100.00
2023-12-07T18:41:07.202Z,100.00
2023-12-07T18:43:34.706Z,100.00
2023-12-07T18:46:04.354Z,100.00
2023-12-07T18:48:32.065Z,100.00
2023-12-07T18:51:00.404Z,100.00
2023-12-07T18:53:28.474Z,100.00
2023-12-07T18:55:56.175Z,100.00
2023-12-07T18:58:27.108Z,100.00
2023-12-07T19:00:54.806Z,100.00
2023-12-07T19:03:22.392Z,100.00
2023-12-07T19:05:50.489Z,100.00
2023-12-07T19:08:18.049Z,100.00
2023-12-07T19:10:46.524Z,100.00
2023-12-07T19:13:14.144Z,100.00
2023-12-07T19:15:43.057Z,100.00
2023-12-07T19:18:14.196Z,100.00
2023-12-07T19:20:41.824Z,100.00
2023-12-07T19:23:09.935Z,100.00
2023-12-07T19:25:37.610Z,100.00
2023-12-07T19:28:07.007Z,100.00
2023-12-07T19:30:34.594Z,100.00
2023-12-07T19:33:04.322Z,100.00
2023-12-07T19:35:32.101Z,100.00
2023-12-07T19:37:59.715Z,100.00
2023-12-07T19:40:27.330Z,100.00
2023-12-07T19:42:54.885Z,100.00
2023-12-07T19:45:22.540Z,100.00
2023-12-07T19:47:50.330Z,100.00
2023-12-07T19:50:19.501Z,100.00
2023-12-07T19:52:47.048Z,100.00
2023-12-07T19:55:14.730Z,100.00
2023-12-07T19:57:43.552Z,100.00
2023-12-07T20:00:12.800Z,100.00
2023-12-07T20:02:40.494Z,100.00
2023-12-07T20:05:09.574Z,100.00
2023-12-07T20:07:40.747Z,100.00
2023-12-07T20:10:09.947Z,100.00
2023-12-07T20:12:37.977Z,100.00
2023-12-07T20:15:06.589Z,100.00
2023-12-07T20:17:34.309Z,100.00
2023-12-07T20:20:02.006Z,100.00
2023-12-07T20:22:29.674Z,100.00
2023-12-07T20:24:58.536Z,100.00
2023-12-07T20:27:26.394Z,100.00
2023-12-07T20:29:54.179Z,100.00
2023-12-07T20:32:22.363Z,100.00
2023-12-07T20:34:50.778Z,100.00
2023-12-07T20:37:19.650Z,100.00
2023-12-07T20:39:47.403Z,100.00
2023-12-07T20:42:16.967Z,100.00
2023-12-07T20:44:45.446Z,100.00
2023-12-07T20:47:13.004Z,100.00
2023-12-07T20:49:40.829Z,100.00
2023-12-07T20:52:08.964Z,100.00
2023-12-07T20:54:36.618Z,100.00
2023-12-07T20:57:04.755Z,100.00
2023-12-07T20:59:33.818Z,100.00
2023-12-07T21:02:01.555Z,100.00
2023-12-07T21:04:29.143Z,100.00
2023-12-07T21:06:56.706Z,100.00
2023-12-07T21:09:24.223Z,100.00
2023-12-07T21:11:51.776Z,100.00
2023-12-07T21:14:19.316Z,100.00
2023-12-07T21:16:48.189Z,100.00
2023-12-07T21:19:15.898Z,100.00
2023-12-07T21:21:43.514Z,100.00
2023-12-07T21:24:11.606Z,100.00
2023-12-07T21:26:39.295Z,100.00
2023-12-07T21:29:06.832Z,100.00
2023-12-07T21:31:34.459Z,100.00
2023-12-07T21:34:03.432Z,100.00
2023-12-07T21:36:31.063Z,100.00
2023-12-07T21:38:58.609Z,100.00
2023-12-07T21:41:26.319Z,100.00
2023-12-07T21:43:53.915Z,100.00
2023-12-07T21:46:21.424Z,100.00
2023-12-07T21:48:49.070Z,100.00
2023-12-07T21:51:18.065Z,100.00
2023-12-07T21:53:45.713Z,100.00
2023-12-07T21:56:13.732Z,100.00
2023-12-07T21:58:41.642Z,100.00
2023-12-07T22:01:09.185Z,100.00
2023-12-07T22:03:37.966Z,100.00
2023-12-07T22:06:06.552Z,100.00
2023-12-07T22:08:35.462Z,100.00
2023-12-07T22:11:03.378Z,100.00
2023-12-07T22:13:31.574Z,100.00
2023-12-07T22:15:59.124Z,100.00
2023-12-07T22:18:26.781Z,100.00
2023-12-07T22:20:54.319Z,100.00
2023-12-07T22:23:22.636Z,100.00
2023-12-07T22:25:51.498Z,100.00
2023-12-07T22:28:19.031Z,100.00
2023-12-07T22:30:46.576Z,100.00
2023-12-07T22:33:14.665Z,100.00
2023-12-07T22:35:43.865Z,100.00
2023-12-07T22:38:11.513Z,100.00
2023-12-07T22:40:40.256Z,100.00
2023-12-07T22:43:09.299Z,100.00
2023-12-07T22:45:36.839Z,100.00
2023-12-07T22:48:07.213Z,100.00
2023-12-07T22:50:34.984Z,100.00
2023-12-07T22:53:03.507Z,100.00
2023-12-07T22:55:31.072Z,100.00
2023-12-07T22:57:58.602Z,100.00
2023-12-07T23:00:28.656Z,100.00
2023-12-07T23:02:56.412Z,100.00
2023-12-07T23:05:23.980Z,100.00
2023-12-07T23:07:51.534Z,100.00
2023-12-07T23:10:19.049Z,100.00
2023-12-07T23:12:46.620Z,100.00
2023-12-07T23:15:14.765Z,100.00
2023-12-07T23:17:43.792Z,100.00
2023-12-07T23:20:11.740Z,100.00
2023-12-07T23:22:39.385Z,100.00
2023-12-07T23:25:07.843Z,100.00
2023-12-07T23:27:35.458Z,100.00
2023-12-07T23:30:03.033Z,100.00
2023-12-07T23:32:30.797Z,100.00
2023-12-07T23:34:59.827Z,100.00
2023-12-07T23:37:27.665Z,100.00
2023-12-07T23:39:55.547Z,100.00
2023-12-07T23:42:23.109Z,100.00
2023-12-07T23:44:50.867Z,100.00
2023-12-07T23:47:19.507Z,100.00
2023-12-07T23:49:47.153Z,100.00
2023-12-07T23:52:16.459Z,100.00
2023-12-07T23:54:45.616Z,100.00
2023-12-07T23:57:13.153Z,100.00
2023-12-07T23:59:40.753Z,100.00
